Time;durP1;ratioP1;P1;durP2;ratioP2;P2;SDS_P1;SDS_P2;PMS_P1;PMS_P2;Temp;Humidity;BMP_temperature;BMP_pressure;BME280_temperature;BME280_humidity;BME280_pressure;Samples;Min_cycle;Max_cycle;Signal;HPM_P1;HPM_P2
2023/03/12 00:00:14;;;;;;;2.23;1.77;;;15.40;60.00;;;;;;5073930;28;20196;-46
2023/03/12 00:02:55;;;;;;;1.93;1.40;;;15.40;60.00;;;;;;5092932;28;20650;-46
2023/03/12 00:05:24;;;;;;;2.60;1.73;;;15.40;60.10;;;;;;5090382;28;20197;-46
2023/03/12 00:07:58;;;;;;;1.57;1.43;;;15.40;60.00;;;;;;5078889;28;20813;-46
2023/03/12 00:10:30;;;;;;;2.27;1.60;;;15.40;59.90;;;;;;5088042;28;20193;-46
2023/03/12 00:13:06;;;;;;;4.47;1.70;;;15.40;60.20;;;;;;5087729;28;20193;-46
2023/03/12 00:15:38;;;;;;;2.33;1.40;;;15.30;60.00;;;;;;5081732;28;20193;-46
2023/03/12 00:18:10;;;;;;;3.00;1.53;;;15.40;59.90;;;;;;5056504;28;20598;-46
2023/03/12 00:20:40;;;;;;;2.53;1.57;;;15.30;59.90;;;;;;5091393;28;20598;-46
2023/03/12 00:23:11;;;;;;;3.03;1.60;;;15.40;60.00;;;;;;5080779;28;20206;-46
2023/03/12 00:25:42;;;;;;;2.63;1.73;;;15.30;59.60;;;;;;5070419;28;20253;-46
2023/03/12 00:28:19;;;;;;;2.10;1.27;;;15.30;59.90;;;;;;5087264;28;20217;-46
2023/03/12 00:30:52;;;;;;;2.03;1.30;;;15.30;59.90;;;;;;5090080;28;20623;-46
2023/03/12 00:33:25;;;;;;;2.40;1.70;;;15.30;59.80;;;;;;5088514;28;20208;-46
2023/03/12 00:35:58;;;;;;;2.20;1.30;;;15.30;59.80;;;;;;5068817;28;20569;-46
2023/03/12 00:38:30;;;;;;;2.10;1.53;;;15.30;59.80;;;;;;5069557;28;20208;-46
2023/03/12 00:41:00;;;;;;;1.90;1.50;;;15.40;59.80;;;;;;5088283;28;20201;-46
2023/03/12 00:43:30;;;;;;;2.00;1.40;;;15.30;59.80;;;;;;5065899;28;20203;-46
2023/03/12 00:46:01;;;;;;;1.70;1.37;;;15.30;59.80;;;;;;5088725;28;20211;-46
2023/03/12 00:48:34;;;;;;;1.90;1.30;;;15.30;59.70;;;;;;5090578;28;20223;-46
2023/03/12 00:51:05;;;;;;;1.67;1.20;;;15.30;59.80;;;;;;5081211;28;20615;-46
2023/03/12 00:53:36;;;;;;;2.50;1.63;;;15.30;59.80;;;;;;5089296;28;20215;-46
2023/03/12 00:56:07;;;;;;;2.83;1.43;;;15.30;59.80;;;;;;5089690;28;20189;-46
2023/03/12 00:58:35;;;;;;;2.40;1.70;;;15.30;59.70;;;;;;5076085;28;20311;-46
2023/03/12 01:01:05;;;;;;;2.17;1.40;;;15.30;59.70;;;;;;5085552;28;20200;-46
2023/03/12 01:03:35;;;;;;;2.33;1.60;;;15.30;59.70;;;;;;5082822;28;20641;-45
2023/03/12 01:06:09;;;;;;;3.03;1.50;;;15.30;59.80;;;;;;5071712;28;20318;-46
2023/03/12 01:08:40;;;;;;;2.43;1.47;;;15.30;59.80;;;;;;5084894;28;20239;-46
2023/03/12 01:11:35;;;;;;;2.07;1.40;;;15.30;59.90;;;;;;5085417;28;20666;-45
2023/03/12 01:14:08;;;;;;;2.03;1.60;;;15.20;59.70;;;;;;5087046;28;20201;-46
2023/03/12 01:16:40;;;;;;;2.33;1.60;;;15.30;59.70;;;;;;5063392;28;20500;-46
2023/03/12 01:19:11;;;;;;;2.17;1.40;;;15.20;59.60;;;;;;5085082;28;20519;-46
2023/03/12 01:21:40;;;;;;;2.17;1.93;;;15.20;59.40;;;;;;5058432;28;20201;-46
2023/03/12 01:24:10;;;;;;;2.53;1.70;;;15.20;59.80;;;;;;5085448;28;20232;-46
2023/03/12 01:26:42;;;;;;;2.13;1.60;;;15.20;59.60;;;;;;5090065;28;20185;-46
2023/03/12 01:29:11;;;;;;;2.57;1.87;;;15.20;59.40;;;;;;5086767;28;20641;-45
2023/03/12 01:31:42;;;;;;;2.23;1.53;;;15.20;59.80;;;;;;5089498;28;20242;-46
2023/03/12 01:34:13;;;;;;;2.50;1.57;;;15.20;59.80;;;;;;5087049;28;20274;-46
2023/03/12 01:36:45;;;;;;;1.70;1.30;;;15.20;59.60;;;;;;5089307;28;20551;-46
2023/03/12 01:39:17;;;;;;;1.70;1.30;;;15.20;59.40;;;;;;5087941;28;20649;-46
2023/03/12 01:41:53;;;;;;;2.27;1.20;;;15.20;59.60;;;;;;5082449;28;20200;-46
2023/03/12 01:44:23;;;;;;;1.80;1.23;;;15.20;59.70;;;;;;5084340;28;20192;-46
2023/03/12 01:46:54;;;;;;;1.27;1.03;;;15.20;59.60;;;;;;5096025;28;20237;-46
2023/03/12 01:49:31;;;;;;;2.03;1.40;;;15.20;59.70;;;;;;5083692;28;20649;-46
2023/03/12 01:52:35;;;;;;;1.90;1.40;;;15.20;59.70;;;;;;5067729;28;20181;-46
2023/03/12 01:55:16;;;;;;;1.53;1.20;;;15.20;59.90;;;;;;5083032;28;20559;-46
2023/03/12 01:57:56;;;;;;;2.23;1.33;;;15.20;59.80;;;;;;5081333;28;20273;-46
2023/03/12 02:00:26;;;;;;;2.80;1.57;;;15.20;59.90;;;;;;5087826;28;20257;-46
2023/03/12 02:02:58;;;;;;;2.40;1.70;;;15.20;59.80;;;;;;5071901;28;20197;-46
2023/03/12 02:05:50;;;;;;;3.30;1.50;;;15.20;59.80;;;;;;5087219;28;20194;-46
2023/03/12 02:08:21;;;;;;;1.60;1.50;;;15.20;59.80;;;;;;5088016;28;20641;-46
2023/03/12 02:10:52;;;;;;;1.83;1.53;;;15.20;59.90;;;;;;5064264;28;20201;-46
2023/03/12 02:13:26;;;;;;;1.70;1.20;;;15.20;59.40;;;;;;5088399;28;20223;-46
2023/03/12 02:16:01;;;;;;;2.23;1.60;;;15.20;59.70;;;;;;5087777;28;20212;-46
2023/03/12 02:18:33;;;;;;;2.33;1.40;;;15.20;59.70;;;;;;5083630;28;20199;-46
2023/03/12 02:21:32;;;;;;;2.77;1.43;;;15.20;59.30;;;;;;5048893;28;20189;-45
2023/03/12 02:24:19;;;;;;;2.80;1.50;;;15.20;59.70;;;;;;5083043;28;20669;-46
2023/03/12 02:26:51;;;;;;;1.53;1.30;;;15.20;59.50;;;;;;5087321;28;20216;-45
2023/03/12 02:29:24;;;;;;;2.77;1.60;;;15.20;59.60;;;;;;5086159;28;20660;-46
2023/03/12 02:31:56;;;;;;;2.43;1.20;;;15.20;59.70;;;;;;5089004;28;20614;-46
2023/03/12 02:34:27;;;;;;;2.93;1.60;;;15.10;59.50;;;;;;5085068;28;20205;-46
2023/03/12 02:36:58;;;;;;;1.90;1.37;;;15.20;59.70;;;;;;5088791;28;21441;-46
2023/03/12 02:39:30;;;;;;;1.83;1.20;;;15.10;59.60;;;;;;5085307;28;20205;-46
2023/03/12 02:41:59;;;;;;;2.00;1.60;;;15.20;59.60;;;;;;5087661;28;20201;-46
2023/03/12 02:44:42;;;;;;;2.20;1.90;;;15.20;59.70;;;;;;5082042;28;20239;-46
2023/03/12 02:47:14;;;;;;;2.07;1.40;;;15.20;59.70;;;;;;5074826;28;20211;-46
2023/03/12 02:49:45;;;;;;;2.40;1.23;;;15.10;59.80;;;;;;5087583;28;20205;-46
2023/03/12 02:52:16;;;;;;;3.37;1.43;;;15.20;59.80;;;;;;5088183;28;20314;-46
2023/03/12 02:54:44;;;;;;;1.70;1.27;;;15.10;59.60;;;;;;5087602;28;20611;-46
2023/03/12 02:57:16;;;;;;;2.03;1.10;;;15.10;59.60;;;;;;5075409;28;20242;-46
2023/03/12 02:59:48;;;;;;;3.83;1.30;;;15.10;59.40;;;;;;5068845;28;20576;-46
2023/03/12 03:02:19;;;;;;;2.17;1.20;;;15.20;59.70;;;;;;5062390;28;20203;-46
2023/03/12 03:04:51;;;;;;;4.27;1.50;;;15.10;59.70;;;;;;5067748;28;20242;-46
2023/03/12 03:07:22;;;;;;;1.50;0.93;;;15.10;59.50;;;;;;5058919;28;20194;-46
2023/03/12 03:09:55;;;;;;;5.13;1.20;;;15.10;59.70;;;;;;5061004;28;20294;-46
2023/03/12 03:12:25;;;;;;;2.13;1.30;;;15.10;59.70;;;;;;5068295;28;20194;-46
2023/03/12 03:15:09;;;;;;;5.47;1.03;;;15.10;59.60;;;;;;5060116;28;20672;-46
2023/03/12 03:17:40;;;;;;;2.37;1.27;;;15.10;59.60;;;;;;5063783;28;20200;-46
2023/03/12 03:20:12;;;;;;;1.63;1.37;;;15.10;59.80;;;;;;5056274;28;20198;-45
2023/03/12 03:22:43;;;;;;;7.23;1.20;;;15.10;59.70;;;;;;5058851;28;20194;-46
2023/03/12 03:25:12;;;;;;;1.63;1.20;;;15.10;59.70;;;;;;5059743;28;20197;-46
2023/03/12 03:27:40;;;;;;;3.63;1.10;;;15.10;59.70;;;;;;5060793;28;20198;-46
2023/03/12 03:30:10;;;;;;;1.37;1.10;;;15.10;59.70;;;;;;5067720;28;20568;-46
2023/03/12 03:32:43;;;;;;;1.93;1.03;;;15.10;59.70;;;;;;5058511;28;20190;-46
2023/03/12 03:35:15;;;;;;;1.90;1.10;;;15.10;59.80;;;;;;5062154;28;20281;-46
2023/03/12 03:37:46;;;;;;;1.73;1.23;;;15.10;59.70;;;;;;5060287;28;20573;-46
2023/03/12 03:40:27;;;;;;;1.90;1.13;;;15.10;59.50;;;;;;5067718;28;20193;-46
2023/03/12 03:42:57;;;;;;;2.47;1.10;;;15.10;59.70;;;;;;5067332;28;20234;-46
2023/03/12 03:45:26;;;;;;;2.00;1.37;;;15.10;59.80;;;;;;5062611;28;20210;-46
2023/03/12 03:47:55;;;;;;;1.70;1.40;;;15.10;59.70;;;;;;5048131;28;20197;-46
2023/03/12 03:50:24;;;;;;;3.83;1.40;;;15.10;59.70;;;;;;5058674;28;20205;-46
2023/03/12 03:52:56;;;;;;;2.37;1.40;;;15.10;59.80;;;;;;5067328;28;20198;-46
2023/03/12 03:55:25;;;;;;;4.10;1.70;;;15.10;59.70;;;;;;5065900;28;20659;-46
2023/03/12 03:57:57;;;;;;;2.47;1.50;;;15.10;59.70;;;;;;5059930;28;20773;-49
2023/03/12 04:00:29;;;;;;;3.13;1.70;;;15.10;59.70;;;;;;5066122;28;20190;-46
2023/03/12 04:02:59;;;;;;;2.30;1.60;;;15.10;60.30;;;;;;5049622;28;20609;-46
2023/03/12 04:05:29;;;;;;;3.00;1.50;;;15.10;59.50;;;;;;5031641;28;20212;-46
2023/03/12 04:08:01;;;;;;;2.03;1.70;;;15.10;59.60;;;;;;5049502;28;20201;-46
2023/03/12 04:10:42;;;;;;;2.77;1.40;;;15.10;59.60;;;;;;5064770;28;20201;-46
2023/03/12 04:13:13;;;;;;;2.03;1.43;;;15.10;59.50;;;;;;5059767;28;20194;-46
2023/03/12 04:15:52;;;;;;;3.73;1.43;;;15.10;59.50;;;;;;5066858;28;20182;-46
2023/03/12 04:18:25;;;;;;;1.40;0.90;;;15.10;59.50;;;;;;5049780;28;20197;-46
2023/03/12 04:20:56;;;;;;;2.67;1.27;;;15.10;59.60;;;;;;5066731;28;20259;-45
2023/03/12 04:23:27;;;;;;;1.57;1.10;;;15.10;59.50;;;;;;5046482;28;20193;-46
2023/03/12 04:25:58;;;;;;;2.33;1.20;;;15.10;59.50;;;;;;5050123;28;20190;-46
2023/03/12 04:28:27;;;;;;;2.40;1.37;;;15.00;59.40;;;;;;5059349;28;20196;-46
2023/03/12 04:31:01;;;;;;;3.17;1.30;;;15.10;59.30;;;;;;5066115;28;20198;-46
2023/03/12 04:33:34;;;;;;;2.83;1.40;;;15.10;59.40;;;;;;5059860;28;20766;-46
2023/03/12 04:36:06;;;;;;;2.33;1.50;;;15.10;59.50;;;;;;5066916;28;20205;-46
2023/03/12 04:38:35;;;;;;;3.77;1.40;;;15.10;59.30;;;;;;5066637;28;20190;-46
2023/03/12 04:41:11;;;;;;;4.20;1.73;;;15.10;59.30;;;;;;5059879;28;20206;-46
2023/03/12 04:43:42;;;;;;;2.87;1.60;;;15.10;59.50;;;;;;5037534;28;20231;-46
2023/03/12 04:46:14;;;;;;;2.83;1.80;;;15.10;59.40;;;;;;5066677;28;20209;-46
2023/03/12 04:48:46;;;;;;;2.57;1.50;;;15.00;59.20;;;;;;5061027;28;20668;-46
2023/03/12 04:51:17;;;;;;;2.40;1.23;;;15.10;59.20;;;;;;5068107;28;20198;-46
2023/03/12 04:53:50;;;;;;;4.50;1.30;;;15.10;60.00;;;;;;5070983;28;20193;-46
2023/03/12 04:56:21;;;;;;;2.13;1.30;;;15.10;59.40;;;;;;5068079;28;20627;-46
2023/03/12 04:58:53;;;;;;;2.00;1.80;;;15.00;59.20;;;;;;5067527;28;20240;-46
2023/03/12 05:01:30;;;;;;;1.70;1.47;;;15.00;59.00;;;;;;5067888;28;20197;-46
2023/03/12 05:04:05;;;;;;;2.03;1.73;;;15.10;59.20;;;;;;5060788;28;20271;-46
2023/03/12 05:06:36;;;;;;;2.13;1.57;;;15.00;59.10;;;;;;5061658;28;20189;-45
2023/03/12 05:09:07;;;;;;;3.90;1.40;;;15.10;58.90;;;;;;5058567;28;20206;-46
2023/03/12 05:11:38;;;;;;;5.43;1.60;;;15.00;59.10;;;;;;5067290;28;20741;-46
2023/03/12 05:14:10;;;;;;;4.67;1.60;;;15.00;59.00;;;;;;5069947;28;20243;-46
2023/03/12 05:16:38;;;;;;;3.80;1.60;;;15.00;58.90;;;;;;5051357;28;20197;-46
2023/03/12 05:19:10;;;;;;;2.03;1.30;;;15.00;58.80;;;;;;5063281;28;20205;-46
2023/03/12 05:21:44;;;;;;;1.53;1.30;;;15.00;58.90;;;;;;5067439;28;20558;-46
2023/03/12 05:24:16;;;;;;;1.83;1.40;;;15.10;59.10;;;;;;5047421;28;20188;-46
2023/03/12 05:26:45;;;;;;;4.40;1.27;;;15.00;58.90;;;;;;5069884;28;20670;-46
2023/03/12 05:29:15;;;;;;;2.40;1.60;;;15.00;58.80;;;;;;5062355;28;20202;-46
2023/03/12 05:31:47;;;;;;;1.73;1.20;;;15.00;58.90;;;;;;5068119;28;20194;-46
2023/03/12 05:34:18;;;;;;;2.20;1.40;;;15.00;58.80;;;;;;5064476;28;20253;-46
2023/03/12 05:36:48;;;;;;;2.33;1.57;;;15.00;58.60;;;;;;5059995;28;20961;-46
2023/03/12 05:39:19;;;;;;;2.20;1.30;;;15.00;58.90;;;;;;5027409;28;20699;-46
2023/03/12 05:41:49;;;;;;;1.80;1.10;;;15.00;58.80;;;;;;5040841;28;20666;-46
2023/03/12 05:44:20;;;;;;;1.87;1.13;;;15.00;58.90;;;;;;5051823;28;20202;-46
2023/03/12 05:46:52;;;;;;;2.33;1.40;;;15.00;58.80;;;;;;5047442;28;20213;-46
2023/03/12 05:49:26;;;;;;;5.00;1.53;;;15.00;58.70;;;;;;5049958;28;20233;-46
2023/03/12 05:52:11;;;;;;;3.27;1.17;;;15.00;58.70;;;;;;5068030;28;20217;-46
2023/03/12 05:54:41;;;;;;;2.20;1.70;;;15.00;58.50;;;;;;5068969;28;20194;-46
2023/03/12 05:57:09;;;;;;;5.83;1.67;;;15.00;58.60;;;;;;5043934;28;20201;-46
2023/03/12 05:59:39;;;;;;;2.60;1.20;;;15.00;58.60;;;;;;5085007;28;20254;-46
2023/03/12 06:02:11;;;;;;;3.03;1.37;;;15.00;58.40;;;;;;5071930;28;20190;-46
2023/03/12 06:04:41;;;;;;;1.80;1.53;;;15.00;58.40;;;;;;5085711;28;20212;-46
2023/03/12 06:07:11;;;;;;;1.77;1.20;;;15.00;59.00;;;;;;5071448;28;20207;-46
2023/03/12 06:09:40;;;;;;;3.40;1.20;;;15.00;58.30;;;;;;5081590;28;20545;-46
2023/03/12 06:12:16;;;;;;;2.23;1.17;;;15.00;58.40;;;;;;5079466;28;20223;-46
2023/03/12 06:14:44;;;;;;;2.70;1.50;;;15.00;58.20;;;;;;5070022;28;20239;-45
2023/03/12 06:17:14;;;;;;;4.30;1.60;;;15.00;58.00;;;;;;5076969;28;20250;-46
2023/03/12 06:19:49;;;;;;;2.27;1.20;;;15.00;58.10;;;;;;5072628;28;20255;-46
2023/03/12 06:22:18;;;;;;;2.87;1.50;;;14.90;58.10;;;;;;5071015;28;20560;-46
2023/03/12 06:24:49;;;;;;;2.43;1.30;;;15.00;58.00;;;;;;5078666;28;20197;-46
2023/03/12 06:27:19;;;;;;;2.80;1.27;;;15.00;58.10;;;;;;5058336;28;20243;-46
2023/03/12 06:29:50;;;;;;;5.23;1.50;;;15.00;57.90;;;;;;5062484;28;20233;-46
2023/03/12 06:32:28;;;;;;;2.03;1.20;;;15.00;58.00;;;;;;5069994;28;20185;-46
2023/03/12 06:35:03;;;;;;;2.53;1.27;;;15.00;58.00;;;;;;5079243;28;20229;-46
2023/03/12 06:37:35;;;;;;;2.00;1.20;;;15.00;58.00;;;;;;5063952;28;20612;-46
2023/03/12 06:40:16;;;;;;;2.37;1.30;;;15.00;57.90;;;;;;5072699;28;20192;-46
2023/03/12 06:42:46;;;;;;;2.43;1.10;;;14.90;57.90;;;;;;5066380;28;20202;-46
2023/03/12 06:45:15;;;;;;;2.03;1.00;;;14.90;57.90;;;;;;5075185;28;20228;-46
2023/03/12 06:47:45;;;;;;;2.50;1.47;;;14.90;58.00;;;;;;5065217;28;20208;-46
2023/03/12 06:50:17;;;;;;;1.47;1.10;;;15.00;58.00;;;;;;5080758;28;20209;-46
2023/03/12 06:52:48;;;;;;;2.73;1.40;;;14.90;58.00;;;;;;5086235;28;20208;-46
2023/03/12 06:55:23;;;;;;;2.33;1.40;;;14.90;57.80;;;;;;5072056;28;20618;-45
2023/03/12 06:57:54;;;;;;;1.27;1.17;;;14.90;57.80;;;;;;5075389;28;20698;-46
2023/03/12 07:00:25;;;;;;;2.60;1.40;;;14.90;57.90;;;;;;5085825;28;20242;-46
2023/03/12 07:02:56;;;;;;;2.57;1.10;;;14.90;57.90;;;;;;5061176;28;20194;-46
2023/03/12 07:05:28;;;;;;;4.57;1.37;;;14.90;57.80;;;;;;5086568;28;20614;-47
2023/03/12 07:07:58;;;;;;;1.53;1.10;;;14.90;57.80;;;;;;5086334;28;20203;-46
2023/03/12 07:10:30;;;;;;;2.33;1.30;;;14.90;57.80;;;;;;5070428;28;20237;-46
2023/03/12 07:12:59;;;;;;;1.57;0.93;;;14.90;57.80;;;;;;5059358;28;20205;-46
2023/03/12 07:15:30;;;;;;;1.30;0.90;;;14.90;57.80;;;;;;5077571;28;20292;-46
2023/03/12 07:18:11;;;;;;;4.60;1.27;;;14.90;57.70;;;;;;5078291;28;20276;-46
2023/03/12 07:20:46;;;;;;;4.77;1.10;;;14.90;57.80;;;;;;5062467;28;20193;-46
2023/03/12 07:23:15;;;;;;;2.47;1.37;;;14.90;57.90;;;;;;5079469;28;20720;-46
2023/03/12 07:25:47;;;;;;;2.33;1.27;;;14.90;58.00;;;;;;5079600;28;20193;-46
2023/03/12 07:28:22;;;;;;;2.90;1.30;;;14.90;58.20;;;;;;5072482;28;20189;-46
2023/03/12 07:31:00;;;;;;;2.60;1.20;;;14.90;58.10;;;;;;5086692;28;20228;-46
2023/03/12 07:33:32;;;;;;;1.77;1.10;;;14.90;57.80;;;;;;5053708;28;20266;-45
2023/03/12 07:36:02;;;;;;;1.13;0.90;;;14.90;57.80;;;;;;5069149;28;20862;-46
2023/03/12 07:38:32;;;;;;;1.63;1.20;;;14.90;58.20;;;;;;5067135;28;20299;-46
2023/03/12 07:41:05;;;;;;;2.43;1.17;;;15.00;57.80;;;;;;5085513;28;20205;-46
2023/03/12 07:43:37;;;;;;;2.83;1.00;;;14.90;57.80;;;;;;5087332;28;20262;-46
2023/03/12 07:46:05;;;;;;;2.33;1.47;;;15.00;58.10;;;;;;5081849;28;20217;-45
2023/03/12 07:48:37;;;;;;;1.67;1.00;;;15.00;57.90;;;;;;5088474;28;20205;-46
2023/03/12 07:51:13;;;;;;;2.47;1.20;;;15.00;58.00;;;;;;5082929;28;20212;-46
2023/03/12 07:53:43;;;;;;;6.47;1.50;;;15.00;58.20;;;;;;5086179;28;20185;-45
2023/03/12 07:56:14;;;;;;;2.40;1.40;;;15.00;58.20;;;;;;5087353;28;20193;-46
2023/03/12 07:58:42;;;;;;;3.30;1.57;;;15.00;58.20;;;;;;5065051;28;20221;-46
2023/03/12 08:01:12;;;;;;;2.00;1.20;;;15.00;58.30;;;;;;5063315;28;20190;-46
2023/03/12 08:03:45;;;;;;;1.63;1.10;;;15.00;58.40;;;;;;5066314;28;20189;-46
2023/03/12 08:06:16;;;;;;;1.63;1.40;;;15.00;58.60;;;;;;5066641;28;20209;-46
2023/03/12 08:08:49;;;;;;;1.93;1.20;;;15.00;58.20;;;;;;5047699;28;20616;-46
2023/03/12 08:11:24;;;;;;;5.23;1.30;;;15.00;58.30;;;;;;5060076;28;20820;-46
2023/03/12 08:13:57;;;;;;;1.60;1.07;;;15.00;58.20;;;;;;5066603;28;20602;-46
2023/03/12 08:16:24;;;;;;;2.03;1.20;;;15.00;57.90;;;;;;5070265;28;20519;-45
2023/03/12 08:18:54;;;;;;;2.10;1.43;;;15.00;57.90;;;;;;5067407;28;20217;-46
2023/03/12 08:21:25;;;;;;;1.23;1.00;;;15.00;58.20;;;;;;5062129;28;20534;-46
2023/03/12 08:23:56;;;;;;;1.10;0.90;;;15.00;58.20;;;;;;5068828;28;20213;-46
2023/03/12 08:26:26;;;;;;;3.57;1.30;;;15.00;58.30;;;;;;5068253;28;20243;-46
2023/03/12 08:28:56;;;;;;;1.13;1.00;;;15.00;58.20;;;;;;5070632;28;20205;-46
2023/03/12 08:31:28;;;;;;;2.47;1.47;;;15.00;58.20;;;;;;5065591;28;20704;-46
2023/03/12 08:33:59;;;;;;;1.30;1.10;;;15.00;58.10;;;;;;5064934;28;20635;-46
2023/03/12 08:36:28;;;;;;;2.30;1.50;;;15.00;58.00;;;;;;5069018;28;20200;-46
2023/03/12 08:38:58;;;;;;;1.97;1.77;;;15.00;58.10;;;;;;5070438;28;20710;-46
2023/03/12 08:41:29;;;;;;;2.37;1.37;;;15.00;58.10;;;;;;5069247;28;20201;-46
2023/03/12 08:43:58;;;;;;;1.83;1.00;;;15.00;58.10;;;;;;5067558;28;20214;-46
2023/03/12 08:46:29;;;;;;;2.93;1.13;;;15.00;58.10;;;;;;5048058;28;20656;-46
2023/03/12 08:49:02;;;;;;;1.93;1.20;;;15.00;58.20;;;;;;5068884;28;20212;-46
2023/03/12 08:51:33;;;;;;;1.43;1.00;;;15.00;58.10;;;;;;5068883;28;20822;-46
2023/03/12 08:54:04;;;;;;;2.40;1.50;;;15.00;58.30;;;;;;5068431;28;20638;-46
2023/03/12 08:56:40;;;;;;;1.57;1.20;;;15.00;58.40;;;;;;5082765;28;20202;-46
2023/03/12 08:59:38;;;;;;;2.00;1.03;;;15.00;58.50;;;;;;5063552;28;20230;-46
2023/03/12 09:02:15;;;;;;;2.03;1.20;;;15.00;58.20;;;;;;5067140;28;20224;-47
2023/03/12 09:04:49;;;;;;;3.20;1.20;;;15.00;58.30;;;;;;5068299;28;20197;-47
2023/03/12 09:07:21;;;;;;;1.97;1.20;;;15.00;58.30;;;;;;5065065;28;20856;-46
2023/03/12 09:09:53;;;;;;;1.30;1.20;;;15.10;58.40;;;;;;5066209;28;20229;-46
2023/03/12 09:12:26;;;;;;;2.70;1.37;;;15.00;58.40;;;;;;5048180;28;20206;-46
2023/03/12 09:14:58;;;;;;;4.47;1.53;;;15.00;58.40;;;;;;5067905;28;20221;-46
2023/03/12 09:17:33;;;;;;;2.43;1.60;;;15.10;58.60;;;;;;5068293;28;20197;-46
2023/03/12 09:20:13;;;;;;;1.63;1.00;;;15.10;58.70;;;;;;5051738;28;20658;-46
2023/03/12 09:22:46;;;;;;;2.80;1.57;;;15.10;58.60;;;;;;5064457;28;20245;-46
2023/03/12 09:25:22;;;;;;;1.37;1.00;;;15.10;58.80;;;;;;5065282;28;20198;-46
2023/03/12 09:27:52;;;;;;;2.10;1.40;;;15.10;58.60;;;;;;5069539;28;20201;-46
2023/03/12 09:30:21;;;;;;;1.90;1.30;;;15.10;58.80;;;;;;5068010;28;20210;-46
2023/03/12 09:32:51;;;;;;;1.63;1.03;;;15.10;58.90;;;;;;5046878;28;20189;-47
2023/03/12 09:35:21;;;;;;;1.77;1.30;;;15.10;58.80;;;;;;5059231;28;20198;-46
2023/03/12 09:37:52;;;;;;;1.20;1.00;;;15.10;58.90;;;;;;5067551;28;20211;-45
2023/03/12 09:40:25;;;;;;;1.17;0.80;;;15.10;58.90;;;;;;5046597;28;20245;-45
2023/03/12 09:43:21;;;;;;;1.33;1.23;;;15.10;58.80;;;;;;5048893;28;20631;-46
2023/03/12 09:45:51;;;;;;;4.27;1.53;;;15.10;58.70;;;;;;5060606;28;20644;-45
2023/03/12 09:48:48;;;;;;;2.67;1.83;;;15.10;58.90;;;;;;5060459;28;20202;-46
2023/03/12 09:51:32;;;;;;;4.23;1.50;;;15.10;59.00;;;;;;5058492;28;20224;-45
2023/03/12 09:54:05;;;;;;;4.30;1.90;;;15.10;58.90;;;;;;5050063;28;20244;-46
2023/03/12 09:56:34;;;;;;;3.20;1.70;;;15.10;58.90;;;;;;5046589;28;20194;-46
2023/03/12 09:59:13;;;;;;;6.90;2.27;;;15.20;59.10;;;;;;5049964;28;20593;-45
2023/03/12 10:02:01;;;;;;;6.07;2.60;;;15.20;59.10;;;;;;5078057;28;20213;-46
2023/03/12 10:04:51;;;;;;;4.80;2.67;;;15.20;59.10;;;;;;5068935;28;20193;-46
2023/03/12 10:07:34;;;;;;;4.43;2.60;;;15.20;59.10;;;;;;5065670;28;20708;-45
2023/03/12 10:10:20;;;;;;;8.00;2.80;;;15.20;59.10;;;;;;5079118;28;20591;-46
2023/03/12 10:13:21;;;;;;;5.90;2.83;;;15.20;59.20;;;;;;5082905;28;20212;-45
2023/03/12 10:16:16;;;;;;;5.27;2.50;;;15.20;58.90;;;;;;5082217;28;20604;-46
2023/03/12 10:19:31;;;;;;;5.77;3.17;;;15.20;59.10;;;;;;5083222;28;20663;-46
2023/03/12 10:22:13;;;;;;;6.43;3.00;;;15.20;59.00;;;;;;5077674;28;20215;-46
2023/03/12 10:25:13;;;;;;;6.40;3.10;;;15.20;59.50;;;;;;5084611;28;20192;-46
2023/03/12 10:27:44;;;;;;;8.47;3.47;;;15.20;59.30;;;;;;5082278;28;20188;-46
2023/03/12 10:30:44;;;;;;;4.20;3.00;;;15.20;59.20;;;;;;5081332;28;20205;-45
2023/03/12 10:33:17;;;;;;;9.87;3.87;;;15.20;59.20;;;;;;5077146;28;20265;-46
2023/03/12 10:35:51;;;;;;;6.30;3.23;;;15.20;59.20;;;;;;5082962;28;20212;-45
2023/03/12 10:38:31;;;;;;;5.07;3.27;;;15.20;59.10;;;;;;5081424;28;20197;-46
2023/03/12 10:41:10;;;;;;;5.43;2.67;;;15.20;59.10;;;;;;5082396;28;20197;-46
2023/03/12 10:43:38;;;;;;;4.50;3.57;;;15.30;59.10;;;;;;5082865;28;20201;-46
2023/03/12 10:46:34;;;;;;;6.23;3.30;;;15.30;59.00;;;;;;5060865;28;20225;-46
2023/03/12 10:49:30;;;;;;;7.17;3.00;;;15.30;59.00;;;;;;5067128;28;20196;-46
2023/03/12 10:52:15;;;;;;;6.50;3.30;;;15.30;59.20;;;;;;5081810;28;20672;-46
2023/03/12 10:54:48;;;;;;;5.60;3.47;;;15.30;59.00;;;;;;5079411;28;20209;-45
2023/03/12 10:57:20;;;;;;;3.97;3.00;;;15.30;59.00;;;;;;5060307;28;20213;-45
2023/03/12 11:00:03;;;;;;;5.20;2.63;;;15.30;59.10;;;;;;5081841;28;20252;-46
2023/03/12 11:03:05;;;;;;;5.37;3.30;;;15.30;59.00;;;;;;5085739;28;20208;-45
2023/03/12 11:05:47;;;;;;;4.77;2.97;;;15.30;59.10;;;;;;5068500;28;20189;-46
2023/03/12 11:09:00;;;;;;;4.67;3.63;;;15.30;59.10;;;;;;5074029;28;20185;-46
2023/03/12 11:11:46;;;;;;;6.07;3.90;;;15.40;59.20;;;;;;5087295;28;20241;-46
2023/03/12 11:14:27;;;;;;;7.10;3.00;;;15.30;59.20;;;;;;5068656;28;20202;-45
2023/03/12 11:16:56;;;;;;;7.47;3.90;;;15.40;59.40;;;;;;5068227;28;20211;-46
2023/03/12 11:19:34;;;;;;;7.43;3.87;;;15.30;59.50;;;;;;5066077;28;20615;-45
2023/03/12 11:22:34;;;;;;;6.30;3.87;;;15.40;59.60;;;;;;5083035;28;20626;-46
2023/03/12 11:25:27;;;;;;;5.70;3.20;;;15.40;59.60;;;;;;5080866;28;20189;-45
2023/03/12 11:28:04;;;;;;;6.27;3.23;;;15.40;59.60;;;;;;5073841;28;20226;-52
2023/03/12 11:30:39;;;;;;;7.00;4.00;;;15.40;59.60;;;;;;5074892;28;20224;-46
2023/03/12 11:33:12;;;;;;;8.53;3.67;;;15.40;59.50;;;;;;5057099;28;20212;-46
2023/03/12 11:36:28;;;;;;;7.97;3.73;;;15.40;59.50;;;;;;5075501;28;20188;-46
2023/03/12 11:39:31;;;;;;;5.50;3.73;;;15.40;59.40;;;;;;5068460;28;20189;-46
2023/03/12 11:42:32;;;;;;;5.90;3.70;;;15.40;59.50;;;;;;5087435;28;20645;-46
2023/03/12 11:45:51;;;;;;;4.93;3.37;;;15.40;59.50;;;;;;5080762;28;20225;-46
2023/03/12 11:49:00;;;;;;;6.30;4.20;;;15.40;59.50;;;;;;5066843;28;20204;-46
2023/03/12 11:51:48;;;;;;;8.40;4.43;;;15.40;59.60;;;;;;5091995;28;20572;-46
2023/03/12 11:54:46;;;;;;;5.67;3.67;;;15.40;59.70;;;;;;5087878;28;20240;-46
2023/03/12 11:57:46;;;;;;;7.63;4.10;;;15.50;59.80;;;;;;5100585;28;20185;-45
2023/03/12 12:00:26;;;;;;;4.83;3.23;;;15.40;59.60;;;;;;5058864;28;20282;-46
2023/03/12 12:03:16;;;;;;;4.93;3.77;;;15.50;59.70;;;;;;5043457;28;20623;-46
2023/03/12 12:06:20;;;;;;;7.50;3.83;;;15.40;59.80;;;;;;5069486;28;20198;-46
2023/03/12 12:09:08;;;;;;;7.07;4.17;;;15.50;59.70;;;;;;5070027;28;20258;-46
2023/03/12 12:12:06;;;;;;;5.77;3.80;;;15.40;59.80;;;;;;5073392;28;20712;-46
2023/03/12 12:15:08;;;;;;;6.27;4.03;;;15.50;59.70;;;;;;5070025;28;20242;-46
2023/03/12 12:18:07;;;;;;;6.87;4.23;;;15.50;59.70;;;;;;5069765;28;20523;-46
2023/03/12 12:21:11;;;;;;;6.17;3.97;;;15.50;59.60;;;;;;5050352;28;20220;-45
2023/03/12 12:24:07;;;;;;;9.03;4.03;;;15.50;59.70;;;;;;5046014;28;20209;-47
2023/03/12 12:27:20;;;;;;;7.13;4.23;;;15.50;60.30;;;;;;5063460;28;20550;-47
2023/03/12 12:30:16;;;;;;;5.43;3.93;;;15.50;59.70;;;;;;5045734;28;20209;-46
2023/03/12 12:33:23;;;;;;;6.17;4.30;;;15.50;59.60;;;;;;5073881;28;20792;-46
2023/03/12 12:35:57;;;;;;;6.73;4.60;;;15.60;59.60;;;;;;5074424;28;20215;-46
2023/03/12 12:38:41;;;;;;;8.07;4.20;;;15.60;59.60;;;;;;5071582;28;20197;-46
2023/03/12 12:41:20;;;;;;;6.23;4.20;;;15.60;59.50;;;;;;5047072;28;20198;-46
2023/03/12 12:43:49;;;;;;;6.97;4.57;;;15.60;59.50;;;;;;5039675;28;20703;-46
2023/03/12 12:46:31;;;;;;;7.63;4.43;;;15.60;59.50;;;;;;5043218;28;20695;-46
2023/03/12 12:49:12;;;;;;;7.20;4.67;;;15.70;59.50;;;;;;5045747;28;20207;-46
2023/03/12 12:52:06;;;;;;;6.30;4.00;;;15.70;59.50;;;;;;5054332;28;20221;-46
2023/03/12 12:54:57;;;;;;;7.20;4.67;;;15.70;59.90;;;;;;5058666;28;20197;-46
2023/03/12 12:57:47;;;;;;;5.37;3.47;;;15.70;59.90;;;;;;5064114;28;20540;-46
2023/03/12 13:01:09;;;;;;;8.33;4.63;;;15.70;59.70;;;;;;5085101;28;20204;-46
2023/03/12 13:03:39;;;;;;;7.70;4.43;;;15.70;59.70;;;;;;5059628;28;20205;-46
2023/03/12 13:06:10;;;;;;;8.23;4.30;;;15.80;59.70;;;;;;5085482;28;20208;-46
2023/03/12 13:09:00;;;;;;;8.80;4.40;;;15.80;59.70;;;;;;5093143;28;20181;-47
2023/03/12 13:11:39;;;;;;;9.57;4.23;;;15.80;59.50;;;;;;5091664;28;20224;-46
2023/03/12 13:14:21;;;;;;;7.83;4.10;;;15.80;59.50;;;;;;5071588;28;20197;-46
2023/03/12 13:17:04;;;;;;;10.00;4.80;;;15.80;59.60;;;;;;5079365;28;20197;-46
2023/03/12 13:19:40;;;;;;;6.77;4.73;;;15.80;59.50;;;;;;5071314;28;20731;-46
2023/03/12 13:22:57;;;;;;;7.73;4.20;;;15.80;59.50;;;;;;5083710;28;20231;-46
2023/03/12 13:26:00;;;;;;;10.03;4.40;;;15.80;59.60;;;;;;5096502;28;20299;-46
2023/03/12 13:28:56;;;;;;;10.37;4.77;;;15.80;59.50;;;;;;5091360;28;20176;-47
2023/03/12 13:31:41;;;;;;;8.40;3.97;;;15.80;59.50;;;;;;5083692;28;20205;-46
2023/03/12 13:34:17;;;;;;;6.67;3.57;;;15.80;59.50;;;;;;5061253;28;20221;-46